Time,TemperatureF,DewpointF,PressureIn,WindDirection,WindDirectionDegrees,WindSpeedMPH,WindSpeedGustMPH,Humidity,HourlyPrecipIn,Conditions,Clouds,dailyrainin,SoftwareType,DateUTC
2013-04-28 00:02:00,45.5,38.8,30.28,North,0,0.0,3.0,77,-99.99,,,-99.99,PWS SA v1.10,2013-04-28 04:02:00,
2013-04-28 00:06:00,45.5,38.5,30.28,North,0,0.0,3.0,77,-99.99,,,-99.99,PWS SA v1.10,2013-04-28 04:06:00,
2013-04-28 00:08:00,45.5,38.9,30.28,North,0,0.0,3.0,78,-99.99,,,-99.99,PWS SA v1.10,2013-04-28 04:08:00,
2013-04-28 00:14:00,45.3,38.8,30.28,North,0,0.0,0.0,77,-99.99,,,-99.99,PWS SA v1.10,2013-04-28 04:14:00,
2013-04-28 00:18:00,45.3,38.7,30.28,North,0,0.0,0.0,78,-99.99,,,-99.99,PWS SA v1.10,2013-04-28 04:18:00,
2013-04-28 00:24:00,45.1,38.6,30.28,North,0,0.0,0.0,78,-99.99,,,-99.99,PWS SA v1.10,2013-04-28 04:24:00,
2013-04-28 00:30:00,44.8,39.0,30.27,North,0,0.0,0.0,79,-99.99,,,-99.99,PWS SA v1.10,2013-04-28 04:30:00,
2013-04-28 00:32:00,44.7,38.9,30.27,North,0,0.0,0.0,79,-99.99,,,-99.99,PWS SA v1.10,2013-04-28 04:32:00,
2013-04-28 00:38:00,44.7,38.9,30.28,North,0,0.0,0.0,80,-99.99,,,-99.99,PWS SA v1.10,2013-04-28 04:38:00,
2013-04-28 00:44:00,44.5,39.2,30.28,North,0,0.0,0.0,81,-99.99,,,-99.99,PWS SA v1.10,2013-04-28 04:44:00,
2013-04-28 00:50:00,44.2,39.0,30.28,North,0,0.0,0.0,81,-99.99,,,-99.99,PWS SA v1.10,2013-04-28 04:50:00,
2013-04-28 00:56:00,44.0,38.7,30.28,North,0,0.0,0.0,81,-99.99,,,-99.99,PWS SA v1.10,2013-04-28 04:56:00,
2013-04-28 01:02:00,43.8,39.0,30.28,North,0,0.0,0.0,82,-99.99,,,-99.99,PWS SA v1.10,2013-04-28 05:02:00,
2013-04-28 01:08:00,43.8,39.1,30.28,North,0,0.0,0.0,82,-99.99,,,-99.99,PWS SA v1.10,2013-04-28 05:08:00,
2013-04-28 01:14:00,43.7,38.7,30.28,North,0,0.0,0.0,82,-99.99,,,-99.99,PWS SA v1.10,2013-04-28 05:14:00,
2013-04-28 01:20:00,43.6,38.7,30.28,North,0,0.0,0.0,82,-99.99,,,-99.99,PWS SA v1.10,2013-04-28 05:20:00,
2013-04-28 01:26:00,43.4,38.5,30.28,North,0,0.0,0.0,82,-99.99,,,-99.99,PWS SA v1.10,2013-04-28 05:26:00,
2013-04-28 01:32:00,43.3,38.5,30.28,North,0,0.0,0.0,82,-99.99,,,-99.99,PWS SA v1.10,2013-04-28 05:32:00,
2013-04-28 01:38:00,43.0,38.2,30.28,North,0,0.0,0.0,82,-99.99,,,-99.99,PWS SA v1.10,2013-04-28 05:38:00,
2013-04-28 01:44:00,43.0,38.3,30.27,North,0,0.0,0.0,83,-99.99,,,-99.99,PWS SA v1.10,2013-04-28 05:44:00,
2013-04-28 01:50:00,42.9,38.5,30.27,North,0,0.0,0.0,83,-99.99,,,-99.99,PWS SA v1.10,2013-04-28 05:50:00,
2013-04-28 01:56:00,42.7,38.6,30.27,North,0,0.0,0.0,84,-99.99,,,-99.99,PWS SA v1.10,2013-04-28 05:56:00,
2013-04-28 02:02:00,42.7,38.0,30.26,North,0,0.0,0.0,84,-99.99,,,-99.99,PWS SA v1.10,2013-04-28 06:02:00,
2013-04-28 02:08:00,42.5,38.2,30.26,North,0,0.0,0.0,84,-99.99,,,-99.99,PWS SA v1.10,2013-04-28 06:08:00,
2013-04-28 02:14:00,42.9,38.9,30.26,North,0,0.0,0.0,85,-99.99,,,-99.99,PWS SA v1.10,2013-04-28 06:14:00,
2013-04-28 02:20:00,42.8,38.3,30.26,North,0,0.0,0.0,84,-99.99,,,-99.99,PWS SA v1.10,2013-04-28 06:20:00,
2013-04-28 02:26:00,42.2,38.3,30.26,North,0,0.0,0.0,85,-99.99,,,-99.99,PWS SA v1.10,2013-04-28 06:26:00,
2013-04-28 02:32:00,42.1,38.3,30.26,North,0,0.0,0.0,86,-99.99,,,-99.99,PWS SA v1.10,2013-04-28 06:32:00,
2013-04-28 02:38:00,42.4,38.7,30.26,North,0,0.0,0.0,87,-99.99,,,-99.99,PWS SA v1.10,2013-04-28 06:38:00,
2013-04-28 02:44:00,42.2,38.5,30.26,North,0,0.0,0.0,87,-99.99,,,-99.99,PWS SA v1.10,2013-04-28 06:44:00,
2013-04-28 02:50:00,42.4,38.8,30.26,North,0,0.0,0.0,87,-99.99,,,-99.99,PWS SA v1.10,2013-04-28 06:50:00,
2013-04-28 02:56:00,42.1,38.2,30.26,North,0,0.0,0.0,87,-99.99,,,-99.99,PWS SA v1.10,2013-04-28 06:56:00,
2013-04-28 03:02:00,41.7,38.3,30.26,North,0,0.0,0.0,87,-99.99,,,-99.99,PWS SA v1.10,2013-04-28 07:02:00,
2013-04-28 03:08:00,41.6,38.3,30.26,North,0,0.0,0.0,87,-99.99,,,-99.99,PWS SA v1.10,2013-04-28 07:08:00,
2013-04-28 03:14:00,41.5,38.4,30.25,North,0,0.0,0.0,88,-99.99,,,-99.99,PWS SA v1.10,2013-04-28 07:14:00,
2013-04-28 03:20:00,41.5,38.5,30.25,North,0,0.0,0.0,88,-99.99,,,-99.99,PWS SA v1.10,2013-04-28 07:20:00,
2013-04-28 03:26:00,41.4,38.3,30.25,North,0,0.0,0.0,88,-99.99,,,-99.99,PWS SA v1.10,2013-04-28 07:26:00,
2013-04-28 03:32:00,41.2,38.5,30.26,North,0,0.0,0.0,89,-99.99,,,-99.99,PWS SA v1.10,2013-04-28 07:32:00,
2013-04-28 03:38:00,41.1,38.3,30.25,North,0,0.0,0.0,89,-99.99,,,-99.99,PWS SA v1.10,2013-04-28 07:38:00,
2013-04-28 03:44:00,41.0,38.3,30.25,North,0,0.0,0.0,89,-99.99,,,-99.99,PWS SA v1.10,2013-04-28 07:44:00,
2013-04-28 03:50:00,40.8,37.8,30.25,North,0,0.0,0.0,89,-99.99,,,-99.99,PWS SA v1.10,2013-04-28 07:50:00,
2013-04-28 03:56:00,41.0,38.4,30.25,North,0,0.0,0.0,90,-99.99,,,-99.99,PWS SA v1.10,2013-04-28 07:56:00,
2013-04-28 04:02:00,40.6,37.9,30.26,North,0,0.0,0.0,90,-99.99,,,-99.99,PWS SA v1.10,2013-04-28 08:02:00,
2013-04-28 04:08:00,40.6,38.0,30.25,North,0,0.0,0.0,90,-99.99,,,-99.99,PWS SA v1.10,2013-04-28 08:08:00,
2013-04-28 04:14:00,40.2,37.6,30.25,North,0,0.0,0.0,90,-99.99,,,-99.99,PWS SA v1.10,2013-04-28 08:14:00,
2013-04-28 04:20:00,40.7,37.8,30.25,North,0,0.0,0.0,90,-99.99,,,-99.99,PWS SA v1.10,2013-04-28 08:20:00,
2013-04-28 04:26:00,40.4,37.9,30.25,North,0,0.0,0.0,90,-99.99,,,-99.99,PWS SA v1.10,2013-04-28 08:26:00,
2013-04-28 04:32:00,40.0,37.6,30.25,North,0,0.0,0.0,90,-99.99,,,-99.99,PWS SA v1.10,2013-04-28 08:32:00,
2013-04-28 04:38:00,39.9,37.9,30.24,North,0,0.0,0.0,91,-99.99,,,-99.99,PWS SA v1.10,2013-04-28 08:38:00,
2013-04-28 04:44:00,39.7,37.3,30.25,North,0,0.0,0.0,91,-99.99,,,-99.99,PWS SA v1.10,2013-04-28 08:44:00,
2013-04-28 04:50:00,40.0,37.8,30.25,North,0,0.0,0.0,91,-99.99,,,-99.99,PWS SA v1.10,2013-04-28 08:50:00,
2013-04-28 04:56:00,39.7,37.4,30.25,North,0,0.0,0.0,91,-99.99,,,-99.99,PWS SA v1.10,2013-04-28 08:56:00,
2013-04-28 05:02:00,39.7,37.3,30.25,North,0,0.0,0.0,91,-99.99,,,-99.99,PWS SA v1.10,2013-04-28 09:02:00,
2013-04-28 05:08:00,39.6,37.4,30.25,North,0,0.0,0.0,91,-99.99,,,-99.99,PWS SA v1.10,2013-04-28 09:08:00,
2013-04-28 05:14:00,39.6,37.3,30.25,North,0,0.0,0.0,91,-99.99,,,-99.99,PWS SA v1.10,2013-04-28 09:14:00,
2013-04-28 05:20:00,38.9,37.0,30.25,North,0,0.0,0.0,92,-99.99,,,-99.99,PWS SA v1.10,2013-04-28 09:20:00,
2013-04-28 05:26:00,38.8,37.0,30.24,North,0,0.0,0.0,92,-99.99,,,-99.99,PWS SA v1.10,2013-04-28 09:26:00,
2013-04-28 05:32:00,38.6,37.0,30.24,North,0,0.0,0.0,93,-99.99,,,-99.99,PWS SA v1.10,2013-04-28 09:32:00,
2013-04-28 05:38:00,38.5,36.9,30.25,North,0,0.0,0.0,93,-99.99,,,-99.99,PWS SA v1.10,2013-04-28 09:38:00,
2013-04-28 05:44:00,38.5,36.9,30.25,North,0,0.0,0.0,93,-99.99,,,-99.99,PWS SA v1.10,2013-04-28 09:44:00,
2013-04-28 05:50:00,39.1,37.2,30.25,North,0,0.0,0.0,93,-99.99,,,-99.99,PWS SA v1.10,2013-04-28 09:50:00,
2013-04-28 05:56:00,39.3,37.3,30.25,North,0,0.0,0.0,93,-99.99,,,-99.99,PWS SA v1.10,2013-04-28 09:56:00,
2013-04-28 06:02:00,39.1,37.3,30.26,North,0,0.0,0.0,93,-99.99,,,-99.99,PWS SA v1.10,2013-04-28 10:02:00,
2013-04-28 06:08:00,38.5,37.4,30.25,North,0,0.0,0.0,93,-99.99,,,-99.99,PWS SA v1.10,2013-04-28 10:08:00,
2013-04-28 06:14:00,38.5,37.2,30.25,North,0,0.0,0.0,94,-99.99,,,-99.99,PWS SA v1.10,2013-04-28 10:14:00,
2013-04-28 06:20:00,38.5,37.3,30.25,North,0,0.0,0.0,94,-99.99,,,-99.99,PWS SA v1.10,2013-04-28 10:20:00,
2013-04-28 06:26:00,38.7,37.3,30.25,North,0,0.0,0.0,94,-99.99,,,-99.99,PWS SA v1.10,2013-04-28 10:26:00,
2013-04-28 06:32:00,38.7,37.3,30.25,North,0,0.0,0.0,94,-99.99,,,-99.99,PWS SA v1.10,2013-04-28 10:32:00,
2013-04-28 06:38:00,39.6,37.9,30.25,North,0,0.0,0.0,94,-99.99,,,-99.99,PWS SA v1.10,2013-04-28 10:38:00,
2013-04-28 06:44:00,39.9,38.2,30.26,North,0,0.0,0.0,94,-99.99,,,-99.99,PWS SA v1.10,2013-04-28 10:44:00,
2013-04-28 06:50:00,40.2,38.4,30.26,North,0,0.0,0.0,94,-99.99,,,-99.99,PWS SA v1.10,2013-04-28 10:50:00,
2013-04-28 06:56:00,40.6,38.7,30.26,North,0,0.0,0.0,94,-99.99,,,-99.99,PWS SA v1.10,2013-04-28 10:56:00,
2013-04-28 07:02:00,40.4,38.7,30.27,North,0,0.0,0.0,93,-99.99,,,-99.99,PWS SA v1.10,2013-04-28 11:02:00,
2013-04-28 07:08:00,40.6,39.1,30.26,North,0,0.0,0.0,93,-99.99,,,-99.99,PWS SA v1.10,2013-04-28 11:08:00,
2013-04-28 07:14:00,41.1,39.4,30.26,North,0,0.0,0.0,93,-99.99,,,-99.99,PWS SA v1.10,2013-04-28 11:14:00,
2013-04-28 07:20:00,41.5,39.4,30.27,North,0,0.0,0.0,93,-99.99,,,-99.99,PWS SA v1.10,2013-04-28 11:20:00,
2013-04-28 07:26:00,42.5,40.1,30.27,North,0,0.0,0.0,92,-99.99,,,-99.99,PWS SA v1.10,2013-04-28 11:26:00,
2013-04-28 07:32:00,43.3,40.0,30.27,North,0,0.0,0.0,89,-99.99,,,-99.99,PWS SA v1.10,2013-04-28 11:32:00,
2013-04-28 07:38:00,44.3,40.4,30.27,North,0,0.0,1.0,87,-99.99,,,-99.99,PWS SA v1.10,2013-04-28 11:38:00,
2013-04-28 07:44:00,44.9,40.4,30.27,North,0,0.0,3.0,86,-99.99,,,-99.99,PWS SA v1.10,2013-04-28 11:44:00,
2013-04-28 07:50:00,45.5,40.4,30.27,North,0,0.0,3.0,83,-99.99,,,-99.99,PWS SA v1.10,2013-04-28 11:50:00,
2013-04-28 07:56:00,46.6,41.2,30.27,North,0,0.0,0.0,82,-99.99,,,-99.99,PWS SA v1.10,2013-04-28 11:56:00,
2013-04-28 08:02:00,47.2,40.9,30.27,North,0,0.0,0.0,80,-99.99,,,-99.99,PWS SA v1.10,2013-04-28 12:02:00,
2013-04-28 08:08:00,47.4,40.6,30.29,North,0,0.0,1.0,78,-99.99,,,-99.99,PWS SA v1.10,2013-04-28 12:08:00,
2013-04-28 08:14:00,47.9,41.0,30.28,NW,322,1.7,1.7,78,-99.99,,,-99.99,PWS SA v1.10,2013-04-28 12:14:00,
2013-04-28 08:20:00,48.6,40.9,30.28,North,0,0.0,1.0,75,-99.99,,,-99.99,PWS SA v1.10,2013-04-28 12:20:00,
2013-04-28 08:26:00,49.4,40.1,30.29,WSW,254,3.4,3.4,72,-99.99,,,-99.99,PWS SA v1.10,2013-04-28 12:26:00,
2013-04-28 08:32:00,50.1,40.5,30.29,WSW,242,5.1,5.1,70,-99.99,,,-99.99,PWS SA v1.10,2013-04-28 12:32:00,
2013-04-28 08:38:00,50.7,39.6,30.29,North,0,0.0,5.0,67,-99.99,,,-99.99,PWS SA v1.10,2013-04-28 12:38:00,
2013-04-28 08:44:00,50.9,39.7,30.29,WSW,253,1.7,5.0,66,-99.99,,,-99.99,PWS SA v1.10,2013-04-28 12:44:00,
2013-04-28 08:50:00,51.5,38.9,30.29,North,0,0.0,3.0,63,-99.99,,,-99.99,PWS SA v1.10,2013-04-28 12:50:00,
2013-04-28 08:56:00,51.9,39.6,30.29,North,0,0.0,3.0,63,-99.99,,,-99.99,PWS SA v1.10,2013-04-28 12:56:00,
2013-04-28 09:02:00,52.2,39.4,30.29,North,0,0.0,3.0,62,-99.99,,,-99.99,PWS SA v1.10,2013-04-28 13:02:00,
2013-04-28 09:08:00,53.1,38.8,30.29,North,0,0.0,0.0,59,-99.99,,,-99.99,PWS SA v1.10,2013-04-28 13:08:00,
2013-04-28 09:14:00,53.2,38.1,30.29,North,0,0.0,5.0,57,-99.99,,,-99.99,PWS SA v1.10,2013-04-28 13:14:00,
2013-04-28 09:20:00,53.8,38.5,30.29,North,0,0.0,5.0,57,-99.99,,,-99.99,PWS SA v1.10,2013-04-28 13:20:00,
2013-04-28 09:26:00,53.9,37.6,30.29,North,354,3.4,3.4,55,-99.99,,,-99.99,PWS SA v1.10,2013-04-28 13:26:00,
2013-04-28 09:32:00,54.3,36.2,30.29,North,0,0.0,5.0,52,-99.99,,,-99.99,PWS SA v1.10,2013-04-28 13:32:00,
2013-04-28 09:38:00,55.0,36.6,30.28,WSW,238,1.7,5.0,51,-99.99,,,-99.99,PWS SA v1.10,2013-04-28 13:38:00,
2013-04-28 09:44:00,55.7,34.9,30.28,NNW,347,1.7,5.0,47,-99.99,,,-99.99,PWS SA v1.10,2013-04-28 13:44:00,
2013-04-28 09:50:00,56.8,35.1,30.28,North,0,0.0,6.0,45,-99.99,,,-99.99,PWS SA v1.10,2013-04-28 13:50:00,
2013-04-28 09:56:00,57.2,36.5,30.28,SE,128,5.1,6.0,47,-99.99,,,-99.99,PWS SA v1.10,2013-04-28 13:56:00,
2013-04-28 10:02:00,57.4,35.3,30.28,North,0,0.0,5.0,44,-99.99,,,-99.99,PWS SA v1.10,2013-04-28 14:02:00,
2013-04-28 10:08:00,58.4,35.5,30.28,WNW,300,3.4,5.0,43,-99.99,,,-99.99,PWS SA v1.10,2013-04-28 14:08:00,
2013-04-28 10:14:00,59.2,35.2,30.28,WSW,248,3.4,5.0,42,-99.99,,,-99.99,PWS SA v1.10,2013-04-28 14:14:00,
2013-04-28 10:20:00,59.5,34.9,30.28,North,0,0.0,5.0,40,-99.99,,,-99.99,PWS SA v1.10,2013-04-28 14:20:00,
2013-04-28 10:26:00,59.6,35.3,30.28,North,0,0.0,3.0,41,-99.99,,,-99.99,PWS SA v1.10,2013-04-28 14:26:00,
2013-04-28 10:32:00,60.4,34.6,30.28,North,0,0.0,5.0,39,-99.99,,,-99.99,PWS SA v1.10,2013-04-28 14:32:00,
2013-04-28 10:38:00,60.2,37.0,30.28,West,275,3.4,5.0,43,-99.99,,,-99.99,PWS SA v1.10,2013-04-28 14:38:00,
2013-04-28 10:44:00,61.4,36.5,30.28,West,264,1.7,5.0,40,-99.99,,,-99.99,PWS SA v1.10,2013-04-28 14:44:00,
2013-04-28 10:50:00,61.7,36.0,30.28,West,267,1.7,6.0,39,-99.99,,,-99.99,PWS SA v1.10,2013-04-28 14:50:00,
2013-04-28 10:56:00,62.3,34.6,30.27,West,261,3.4,6.0,36,-99.99,,,-99.99,PWS SA v1.10,2013-04-28 14:56:00,
2013-04-28 11:02:00,62.7,35.6,30.27,North,0,0.0,6.0,37,-99.99,,,-99.99,PWS SA v1.10,2013-04-28 15:02:00,
2013-04-28 11:08:00,63.2,35.2,30.27,SW,227,5.1,6.0,36,-99.99,,,-99.99,PWS SA v1.10,2013-04-28 15:08:00,
2013-04-28 11:14:00,63.8,35.0,30.26,WNW,293,3.4,8.0,35,-99.99,,,-99.99,PWS SA v1.10,2013-04-28 15:14:00,
2013-04-28 11:20:00,64.4,37.6,30.26,North,0,0.0,8.0,37,-99.99,,,-99.99,PWS SA v1.10,2013-04-28 15:20:00,
2013-04-28 11:26:00,64.7,35.7,30.26,West,260,3.4,5.0,35,-99.99,,,-99.99,PWS SA v1.10,2013-04-28 15:26:00,
2013-04-28 11:32:00,65.0,36.8,30.25,SW,222,3.4,5.0,36,-99.99,,,-99.99,PWS SA v1.10,2013-04-28 15:32:00,
2013-04-28 11:38:00,66.5,36.8,30.26,North,0,0.0,5.0,34,-99.99,,,-99.99,PWS SA v1.10,2013-04-28 15:38:00,
2013-04-28 11:44:00,66.3,35.6,30.25,NW,309,8.5,8.5,32,-99.99,,,-99.99,PWS SA v1.10,2013-04-28 15:44:00,
2013-04-28 11:50:00,66.4,36.0,30.25,WSW,244,1.7,8.0,33,-99.99,,,-99.99,PWS SA v1.10,2013-04-28 15:50:00,
2013-04-28 11:56:00,65.8,35.1,30.25,North,0,0.0,8.0,32,-99.99,,,-99.99,PWS SA v1.10,2013-04-28 15:56:00,
2013-04-28 12:02:00,66.3,35.1,30.24,North,0,0.0,6.0,32,-99.99,,,-99.99,PWS SA v1.10,2013-04-28 16:02:00,
2013-04-28 12:08:00,67.0,37.9,30.24,North,0,0.0,5.0,35,-99.99,,,-99.99,PWS SA v1.10,2013-04-28 16:08:00,
2013-04-28 12:14:00,68.0,38.4,30.24,SE,145,1.7,6.0,34,-99.99,,,-99.99,PWS SA v1.10,2013-04-28 16:14:00,
2013-04-28 12:20:00,68.0,38.3,30.24,SSW,199,1.7,6.0,34,-99.99,,,-99.99,PWS SA v1.10,2013-04-28 16:20:00,
2013-04-28 12:26:00,68.2,39.9,30.24,SW,227,1.7,6.0,36,-99.99,,,-99.99,PWS SA v1.10,2013-04-28 16:26:00,
2013-04-28 12:32:00,68.1,37.2,30.23,SE,133,1.7,3.0,32,-99.99,,,-99.99,PWS SA v1.10,2013-04-28 16:32:00,
2013-04-28 12:38:00,69.1,40.5,30.23,North,0,0.0,6.0,36,-99.99,,,-99.99,PWS SA v1.10,2013-04-28 16:38:00,
2013-04-28 12:44:00,68.5,39.2,30.23,North,0,0.0,6.0,34,-99.99,,,-99.99,PWS SA v1.10,2013-04-28 16:44:00,
2013-04-28 12:50:00,68.8,38.6,30.23,SE,135,3.4,6.0,33,-99.99,,,-99.99,PWS SA v1.10,2013-04-28 16:50:00,
2013-04-28 12:56:00,69.0,39.9,30.23,North,0,0.0,10.0,35,-99.99,,,-99.99,PWS SA v1.10,2013-04-28 16:56:00,
2013-04-28 13:02:00,68.8,38.2,30.23,East,95,1.7,10.0,33,-99.99,,,-99.99,PWS SA v1.10,2013-04-28 17:02:00,
2013-04-28 13:08:00,69.8,40.5,30.22,ESE,115,3.4,8.0,35,-99.99,,,-99.99,PWS SA v1.10,2013-04-28 17:08:00,
2013-04-28 13:14:00,70.3,39.2,30.22,North,9,3.4,8.0,33,-99.99,,,-99.99,PWS SA v1.10,2013-04-28 17:14:00,
2013-04-28 13:20:00,70.1,38.9,30.22,North,0,0.0,6.0,32,-99.99,,,-99.99,PWS SA v1.10,2013-04-28 17:20:00,
2013-04-28 13:26:00,69.6,39.4,30.21,North,0,0.0,6.0,33,-99.99,,,-99.99,PWS SA v1.10,2013-04-28 17:26:00,
2013-04-28 13:32:00,71.2,41.2,30.21,North,0,0.0,6.0,35,-99.99,,,-99.99,PWS SA v1.10,2013-04-28 17:32:00,
2013-04-28 13:38:00,71.2,38.9,30.21,SSE,147,3.4,10.0,31,-99.99,,,-99.99,PWS SA v1.10,2013-04-28 17:38:00,
2013-04-28 13:44:00,69.9,38.0,30.21,NW,316,3.4,10.0,31,-99.99,,,-99.99,PWS SA v1.10,2013-04-28 17:44:00,
2013-04-28 13:50:00,70.7,39.6,30.21,North,0,0.0,3.0,33,-99.99,,,-99.99,PWS SA v1.10,2013-04-28 17:50:00,
2013-04-28 13:56:00,72.2,42.3,30.21,SSW,211,3.4,3.4,34,-99.99,,,-99.99,PWS SA v1.10,2013-04-28 17:56:00,
2013-04-28 14:02:00,72.4,42.0,30.21,SW,217,6.8,6.8,34,-99.99,,,-99.99,PWS SA v1.10,2013-04-28 18:02:00,
2013-04-28 14:08:00,71.3,40.1,30.21,North,0,0.0,6.0,32,-99.99,,,-99.99,PWS SA v1.10,2013-04-28 18:08:00,
2013-04-28 14:14:00,69.9,40.4,30.20,ENE,68,3.4,6.0,34,-99.99,,,-99.99,PWS SA v1.10,2013-04-28 18:14:00,
2013-04-28 14:20:00,70.6,42.0,30.20,SE,125,5.1,5.1,36,-99.99,,,-99.99,PWS SA v1.10,2013-04-28 18:20:00,
2013-04-28 14:26:00,71.2,41.3,30.20,North,0,0.0,6.0,35,-99.99,,,-99.99,PWS SA v1.10,2013-04-28 18:26:00,
2013-04-28 14:32:00,70.4,39.8,30.19,ESE,118,3.4,8.0,33,-99.99,,,-99.99,PWS SA v1.10,2013-04-28 18:32:00,
2013-04-28 14:38:00,69.4,39.9,30.19,NNW,339,1.7,8.0,34,-99.99,,,-99.99,PWS SA v1.10,2013-04-28 18:38:00,
2013-04-28 14:44:00,70.1,41.1,30.20,SE,130,10.2,10.2,35,-99.99,,,-99.99,PWS SA v1.10,2013-04-28 18:44:00,
2013-04-28 14:50:00,69.6,40.4,30.19,ESE,105,5.1,10.0,35,-99.99,,,-99.99,PWS SA v1.10,2013-04-28 18:50:00,
2013-04-28 14:56:00,70.3,40.4,30.19,ENE,66,3.4,10.0,34,-99.99,,,-99.99,PWS SA v1.10,2013-04-28 18:56:00,
2013-04-28 15:02:00,71.9,42.8,30.19,SSW,206,5.1,5.1,36,-99.99,,,-99.99,PWS SA v1.10,2013-04-28 19:02:00,
2013-04-28 15:08:00,71.4,40.1,30.19,East,95,3.4,5.0,32,-99.99,,,-99.99,PWS SA v1.10,2013-04-28 19:08:00,
2013-04-28 15:14:00,71.4,40.7,30.19,ESE,114,1.7,5.0,33,-99.99,,,-99.99,PWS SA v1.10,2013-04-28 19:14:00,
2013-04-28 15:20:00,70.8,40.2,30.17,East,90,3.4,6.0,33,-99.99,,,-99.99,PWS SA v1.10,2013-04-28 19:20:00,
2013-04-28 15:26:00,70.5,41.0,30.17,North,0,0.0,6.0,34,-99.99,,,-99.99,PWS SA v1.10,2013-04-28 19:26:00,
2013-04-28 15:32:00,71.7,41.9,30.17,North,0,0.0,6.0,35,-99.99,,,-99.99,PWS SA v1.10,2013-04-28 19:32:00,
2013-04-28 15:38:00,70.7,41.1,30.17,ENE,76,3.4,6.0,34,-99.99,,,-99.99,PWS SA v1.10,2013-04-28 19:38:00,
2013-04-28 15:44:00,70.2,40.2,30.17,NE,38,6.8,6.8,34,-99.99,,,-99.99,PWS SA v1.10,2013-04-28 19:44:00,
2013-04-28 15:50:00,71.1,42.3,30.16,East,100,1.7,6.0,36,-99.99,,,-99.99,PWS SA v1.10,2013-04-28 19:50:00,
2013-04-28 15:56:00,70.4,42.1,30.16,East,85,3.4,6.0,36,-99.99,,,-99.99,PWS SA v1.10,2013-04-28 19:56:00,
2013-04-28 16:02:00,70.1,42.9,30.16,South,187,1.7,6.0,38,-99.99,,,-99.99,PWS SA v1.10,2013-04-28 20:02:00,
2013-04-28 16:08:00,69.5,41.5,30.17,WSW,240,1.7,6.0,37,-99.99,,,-99.99,PWS SA v1.10,2013-04-28 20:08:00,
2013-04-28 16:14:00,67.5,41.3,30.16,ENE,71,6.8,6.8,39,-99.99,,,-99.99,PWS SA v1.10,2013-04-28 20:14:00,
2013-04-28 16:20:00,66.4,41.3,30.16,ESE,110,5.1,6.0,40,-99.99,,,-99.99,PWS SA v1.10,2013-04-28 20:20:00,
2013-04-28 16:26:00,67.7,42.0,30.16,ESE,108,1.7,6.0,40,-99.99,,,-99.99,PWS SA v1.10,2013-04-28 20:26:00,
2013-04-28 16:32:00,67.8,41.2,30.15,ESE,115,1.7,5.0,38,-99.99,,,-99.99,PWS SA v1.10,2013-04-28 20:32:00,
2013-04-28 16:38:00,68.0,40.6,30.15,ESE,120,5.1,5.1,37,-99.99,,,-99.99,PWS SA v1.10,2013-04-28 20:38:00,
2013-04-28 16:44:00,68.8,41.7,30.16,North,0,0.0,5.0,38,-99.99,,,-99.99,PWS SA v1.10,2013-04-28 20:44:00,
2013-04-28 16:50:00,70.3,39.9,30.16,SW,227,3.4,6.0,34,-99.99,,,-99.99,PWS SA v1.10,2013-04-28 20:50:00,
2013-04-28 16:56:00,69.4,39.0,30.16,SW,229,3.4,6.0,33,-99.99,,,-99.99,PWS SA v1.10,2013-04-28 20:56:00,
2013-04-28 17:02:00,68.7,37.0,30.16,North,0,0.0,6.0,31,-99.99,,,-99.99,PWS SA v1.10,2013-04-28 21:02:00,
2013-04-28 17:08:00,68.1,37.2,30.16,WSW,243,5.1,5.1,32,-99.99,,,-99.99,PWS SA v1.10,2013-04-28 21:08:00,
2013-04-28 17:14:00,68.0,37.8,30.16,North,0,0.0,5.0,33,-99.99,,,-99.99,PWS SA v1.10,2013-04-28 21:14:00,
2013-04-28 17:20:00,68.2,37.0,30.17,SW,236,8.5,8.5,32,-99.99,,,-99.99,PWS SA v1.10,2013-04-28 21:20:00,
2013-04-28 17:26:00,67.4,36.2,30.17,South,181,3.4,8.0,32,-99.99,,,-99.99,PWS SA v1.10,2013-04-28 21:26:00,
2013-04-28 17:32:00,66.5,35.3,30.17,North,0,0.0,8.0,32,-99.99,,,-99.99,PWS SA v1.10,2013-04-28 21:32:00,
2013-04-28 17:38:00,66.2,35.7,30.16,West,264,5.1,6.0,32,-99.99,,,-99.99,PWS SA v1.10,2013-04-28 21:38:00,
2013-04-28 17:44:00,65.8,34.5,30.17,SW,236,3.4,5.0,32,-99.99,,,-99.99,PWS SA v1.10,2013-04-28 21:44:00,
2013-04-28 17:50:00,65.1,34.5,30.17,West,272,1.7,6.0,32,-99.99,,,-99.99,PWS SA v1.10,2013-04-28 21:50:00,
2013-04-28 17:56:00,64.9,34.8,30.17,WSW,253,5.1,6.0,33,-99.99,,,-99.99,PWS SA v1.10,2013-04-28 21:56:00,
2013-04-28 18:02:00,64.6,34.8,30.17,SW,214,1.7,6.0,33,-99.99,,,-99.99,PWS SA v1.10,2013-04-28 22:02:00,
2013-04-28 18:08:00,64.0,34.6,30.18,North,0,0.0,8.0,34,-99.99,,,-99.99,PWS SA v1.10,2013-04-28 22:08:00,
2013-04-28 18:14:00,63.6,33.5,30.17,North,0,0.0,8.0,33,-99.99,,,-99.99,PWS SA v1.10,2013-04-28 22:14:00,
2013-04-28 18:20:00,62.8,34.0,30.18,East,99,6.8,6.8,34,-99.99,,,-99.99,PWS SA v1.10,2013-04-28 22:20:00,
2013-04-28 18:26:00,62.5,34.9,30.18,West,274,5.1,6.0,36,-99.99,,,-99.99,PWS SA v1.10,2013-04-28 22:26:00,
2013-04-28 18:32:00,61.9,33.5,30.18,SE,144,6.8,6.8,35,-99.99,,,-99.99,PWS SA v1.10,2013-04-28 22:32:00,
2013-04-28 18:38:00,61.7,33.7,30.18,North,0,0.0,6.0,35,-99.99,,,-99.99,PWS SA v1.10,2013-04-28 22:38:00,
2013-04-28 18:44:00,61.2,33.4,30.18,North,0,0.0,6.0,36,-99.99,,,-99.99,PWS SA v1.10,2013-04-28 22:44:00,
2013-04-28 18:50:00,60.5,33.3,30.18,North,0,0.0,6.0,36,-99.99,,,-99.99,PWS SA v1.10,2013-04-28 22:50:00,
2013-04-28 18:56:00,60.0,33.1,30.18,SW,214,5.1,6.0,37,-99.99,,,-99.99,PWS SA v1.10,2013-04-28 22:56:00,
2013-04-28 19:02:00,59.8,32.7,30.18,SE,143,10.2,10.2,36,-99.99,,,-99.99,PWS SA v1.10,2013-04-28 23:02:00,
2013-04-28 19:08:00,59.2,32.7,30.18,WSW,240,1.7,10.0,37,-99.99,,,-99.99,PWS SA v1.10,2013-04-28 23:08:00,
2013-04-28 19:14:00,59.0,33.0,30.18,North,0,0.0,10.0,38,-99.99,,,-99.99,PWS SA v1.10,2013-04-28 23:14:00,
2013-04-28 19:20:00,58.4,33.3,30.18,North,0,0.0,3.0,39,-99.99,,,-99.99,PWS SA v1.10,2013-04-28 23:20:00,
2013-04-28 19:26:00,58.2,33.3,30.18,North,0,0.0,6.0,39,-99.99,,,-99.99,PWS SA v1.10,2013-04-28 23:26:00,
2013-04-28 19:32:00,57.7,32.8,30.18,North,0,0.0,6.0,40,-99.99,,,-99.99,PWS SA v1.10,2013-04-28 23:32:00,
2013-04-28 19:38:00,57.4,33.0,30.18,ESE,114,1.7,6.0,40,-99.99,,,-99.99,PWS SA v1.10,2013-04-28 23:38:00,
2013-04-28 19:44:00,57.3,32.6,30.18,SE,146,8.5,8.5,40,-99.99,,,-99.99,PWS SA v1.10,2013-04-28 23:44:00,
2013-04-28 19:50:00,56.9,32.5,30.18,SSW,196,3.4,8.0,40,-99.99,,,-99.99,PWS SA v1.10,2013-04-28 23:50:00,
2013-04-28 19:56:00,56.7,32.1,30.18,South,186,1.7,8.0,40,-99.99,,,-99.99,PWS SA v1.10,2013-04-28 23:56:00,
2013-04-28 20:02:00,56.3,32.3,30.18,North,0,0.0,6.0,41,-99.99,,,-99.99,PWS SA v1.10,2013-04-29 00:02:00,
2013-04-28 20:08:00,56.0,32.5,30.18,North,0,0.0,6.0,41,-99.99,,,-99.99,PWS SA v1.10,2013-04-29 00:08:00,
2013-04-28 20:14:00,55.6,32.7,30.18,North,0,0.0,3.0,42,-99.99,,,-99.99,PWS SA v1.10,2013-04-29 00:14:00,
2013-04-28 20:20:00,55.1,33.8,30.18,North,0,0.0,3.0,44,-99.99,,,-99.99,PWS SA v1.10,2013-04-29 00:20:00,
2013-04-28 20:26:00,54.8,33.4,30.18,North,0,0.0,1.0,44,-99.99,,,-99.99,PWS SA v1.10,2013-04-29 00:26:00,
2013-04-28 20:32:00,55.0,33.2,30.18,North,0,0.0,3.0,44,-99.99,,,-99.99,PWS SA v1.10,2013-04-29 00:32:00,
2013-04-28 20:38:00,54.8,33.0,30.19,South,175,3.4,5.0,44,-99.99,,,-99.99,PWS SA v1.10,2013-04-29 00:38:00,
2013-04-28 20:44:00,54.6,33.4,30.19,North,0,0.0,5.0,45,-99.99,,,-99.99,PWS SA v1.10,2013-04-29 00:44:00,
2013-04-28 20:50:00,54.3,32.5,30.19,SSW,197,1.7,3.0,44,-99.99,,,-99.99,PWS SA v1.10,2013-04-29 00:50:00,
2013-04-28 20:56:00,54.1,32.6,30.19,North,0,0.0,3.0,44,-99.99,,,-99.99,PWS SA v1.10,2013-04-29 00:56:00,
2013-04-28 21:02:00,54.0,32.9,30.19,West,270,1.7,3.0,45,-99.99,,,-99.99,PWS SA v1.10,2013-04-29 01:02:00,
2013-04-28 21:08:00,53.6,32.5,30.20,North,0,0.0,3.0,45,-99.99,,,-99.99,PWS SA v1.10,2013-04-29 01:08:00,
2013-04-28 21:14:00,53.4,32.1,30.20,North,0,0.0,1.0,44,-99.99,,,-99.99,PWS SA v1.10,2013-04-29 01:14:00,
2013-04-28 21:20:00,53.2,31.4,30.20,North,0,0.0,1.0,44,-99.99,,,-99.99,PWS SA v1.10,2013-04-29 01:20:00,
2013-04-28 21:26:00,53.0,31.5,30.20,North,0,0.0,1.0,44,-99.99,,,-99.99,PWS SA v1.10,2013-04-29 01:26:00,
2013-04-28 21:32:00,52.8,31.6,30.21,North,0,0.0,3.0,45,-99.99,,,-99.99,PWS SA v1.10,2013-04-29 01:32:00,
2013-04-28 21:38:00,52.4,31.8,30.21,North,0,0.0,3.0,46,-99.99,,,-99.99,PWS SA v1.10,2013-04-29 01:38:00,
2013-04-28 21:44:00,52.3,30.9,30.20,North,0,0.0,1.0,44,-99.99,,,-99.99,PWS SA v1.10,2013-04-29 01:44:00,
2013-04-28 21:50:00,52.1,30.4,30.20,North,0,0.0,1.0,44,-99.99,,,-99.99,PWS SA v1.10,2013-04-29 01:50:00,
2013-04-28 21:56:00,51.8,30.8,30.21,North,0,0.0,1.0,44,-99.99,,,-99.99,PWS SA v1.10,2013-04-29 01:56:00,
2013-04-28 22:02:00,51.8,30.5,30.21,North,0,0.0,3.0,44,-99.99,,,-99.99,PWS SA v1.10,2013-04-29 02:02:00,
2013-04-28 22:08:00,51.5,30.9,30.21,SW,223,1.7,3.0,45,-99.99,,,-99.99,PWS SA v1.10,2013-04-29 02:08:00,
2013-04-28 22:14:00,51.6,30.8,30.21,North,0,0.0,1.0,45,-99.99,,,-99.99,PWS SA v1.10,2013-04-29 02:14:00,
2013-04-28 22:20:00,51.6,30.8,30.21,North,0,0.0,1.0,45,-99.99,,,-99.99,PWS SA v1.10,2013-04-29 02:20:00,
2013-04-28 22:26:00,51.2,30.4,30.21,North,0,0.0,0.0,45,-99.99,,,-99.99,PWS SA v1.10,2013-04-29 02:26:00,
2013-04-28 22:32:00,50.9,30.4,30.21,North,0,0.0,0.0,46,-99.99,,,-99.99,PWS SA v1.10,2013-04-29 02:32:00,
2013-04-28 22:38:00,50.6,29.3,30.22,North,0,0.0,0.0,44,-99.99,,,-99.99,PWS SA v1.10,2013-04-29 02:38:00,
2013-04-28 22:44:00,50.4,30.3,30.22,North,0,0.0,1.0,45,-99.99,,,-99.99,PWS SA v1.10,2013-04-29 02:44:00,
2013-04-28 22:50:00,50.2,30.6,30.21,North,0,0.0,1.0,47,-99.99,,,-99.99,PWS SA v1.10,2013-04-29 02:50:00,
2013-04-28 22:56:00,50.2,30.3,30.21,North,0,0.0,1.0,46,-99.99,,,-99.99,PWS SA v1.10,2013-04-29 02:56:00,
2013-04-28 23:02:00,49.9,31.3,30.21,North,0,0.0,0.0,49,-99.99,,,-99.99,PWS SA v1.10,2013-04-29 03:02:00,
2013-04-28 23:08:00,49.6,30.6,30.21,North,0,0.0,0.0,48,-99.99,,,-99.99,PWS SA v1.10,2013-04-29 03:08:00,
2013-04-28 23:14:00,49.5,32.7,30.22,North,0,0.0,0.0,53,-99.99,,,-99.99,PWS SA v1.10,2013-04-29 03:14:00,
2013-04-28 23:20:00,49.3,32.2,30.21,North,0,0.0,0.0,51,-99.99,,,-99.99,PWS SA v1.10,2013-04-29 03:20:00,
2013-04-28 23:26:00,49.2,32.2,30.22,North,0,0.0,0.0,52,-99.99,,,-99.99,PWS SA v1.10,2013-04-29 03:26:00,
2013-04-28 23:32:00,49.0,32.8,30.21,North,0,0.0,0.0,53,-99.99,,,-99.99,PWS SA v1.10,2013-04-29 03:32:00,
2013-04-28 23:38:00,48.9,33.5,30.22,North,0,0.0,0.0,55,-99.99,,,-99.99,PWS SA v1.10,2013-04-29 03:38:00,
2013-04-28 23:44:00,48.7,33.5,30.22,North,0,0.0,0.0,55,-99.99,,,-99.99,PWS SA v1.10,2013-04-29 03:44:00,
2013-04-28 23:50:00,48.5,34.1,30.22,North,0,0.0,0.0,57,-99.99,,,-99.99,PWS SA v1.10,2013-04-29 03:50:00,
2013-04-28 23:56:00,48.5,34.9,30.22,North,0,0.0,0.0,60,-99.99,,,-99.99,PWS SA v1.10,2013-04-29 03:56:00,